createdAt,value
2023-01-29T00:01:14.918Z,102291.69
2023-01-29T00:03:44.385Z,102288.59
2023-01-29T00:06:14.266Z,102284.06
2023-01-29T00:08:44.216Z,102277.69
2023-01-29T00:11:14.072Z,102272.11
2023-01-29T00:13:44.048Z,102271.86
2023-01-29T00:16:13.972Z,102271.14
2023-01-29T00:18:44.340Z,102270.80
2023-01-29T00:21:18.593Z,102265.96
2023-01-29T00:23:49.684Z,102271.41
2023-01-29T00:26:17.836Z,102268.09
2023-01-29T00:28:45.217Z,102265.16
2023-01-29T00:31:22.467Z,102266.84
2023-01-29T00:33:52.756Z,102260.48
2023-01-29T00:36:24.910Z,102254.64
2023-01-29T00:39:00.652Z,102253.51
2023-01-29T00:41:51.999Z,102243.20
2023-01-29T00:44:41.787Z,102239.86
2023-01-29T00:47:29.783Z,102231.75
2023-01-29T00:50:02.184Z,102232.96
2023-01-29T00:52:32.516Z,102229.27
2023-01-29T00:55:05.635Z,102226.31
2023-01-29T00:57:37.320Z,102222.58
2023-01-29T01:00:12.290Z,102220.46
2023-01-29T01:03:01.034Z,102219.34
2023-01-29T01:05:31.048Z,102217.02
2023-01-29T01:08:00.919Z,102219.30
2023-01-29T01:10:33.456Z,102227.41
2023-01-29T01:13:07.291Z,102220.30
2023-01-29T01:15:40.276Z,102225.50
2023-01-29T01:18:10.211Z,102227.94
2023-01-29T01:20:40.073Z,102230.73
2023-01-29T01:23:08.492Z,102227.66
2023-01-29T01:25:38.491Z,102230.85
2023-01-29T01:28:07.166Z,102233.14
2023-01-29T01:30:35.173Z,102227.44
2023-01-29T01:33:03.863Z,102226.79
2023-01-29T01:35:31.976Z,102235.63
2023-01-29T01:38:00.568Z,102233.71
2023-01-29T01:40:28.837Z,102226.09
2023-01-29T01:43:00.532Z,102223.61
2023-01-29T01:45:34.714Z,102228.23
2023-01-29T01:48:21.668Z,102228.64
2023-01-29T01:51:03.292Z,102227.27
2023-01-29T01:53:50.605Z,102229.73
2023-01-29T01:56:29.425Z,102233.66
2023-01-29T01:58:59.756Z,102233.40
2023-01-29T02:01:29.697Z,102236.70
2023-01-29T02:04:27.922Z,102238.64
2023-01-29T02:07:20.316Z,102225.75
2023-01-29T02:10:05.655Z,102220.58
2023-01-29T02:12:37.224Z,102219.00
2023-01-29T02:15:08.243Z,102210.36
2023-01-29T02:17:36.521Z,102214.35
2023-01-29T02:20:18.292Z,102210.30
2023-01-29T02:23:46.976Z,102208.69
2023-01-29T02:26:45.916Z,102209.19
2023-01-29T02:29:42.542Z,102206.80
2023-01-29T02:32:27.479Z,102210.41
2023-01-29T02:35:28.697Z,102205.92
2023-01-29T02:38:18.557Z,102204.06
2023-01-29T02:41:13.438Z,102203.18
2023-01-29T02:43:51.646Z,102201.19
2023-01-29T02:46:37.781Z,102204.34
2023-01-29T02:49:47.420Z,102207.34
2023-01-29T02:52:26.350Z,102208.19
2023-01-29T02:55:09.263Z,102211.11
2023-01-29T02:57:46.398Z,102207.29
2023-01-29T03:00:22.706Z,102198.88
2023-01-29T03:03:20.699Z,102193.85
2023-01-29T03:06:06.270Z,102178.02
2023-01-29T03:08:45.462Z,102174.14
2023-01-29T03:11:17.553Z,102184.63
2023-01-29T03:14:02.767Z,102186.27
2023-01-29T03:16:46.243Z,102186.08
2023-01-29T03:19:29.398Z,102185.59
2023-01-29T03:22:04.476Z,102182.96
2023-01-29T03:25:02.879Z,102176.29
2023-01-29T03:28:15.808Z,102173.06
2023-01-29T03:31:12.819Z,102172.48
2023-01-29T03:33:51.137Z,102175.54
2023-01-29T03:36:49.240Z,102174.40
2023-01-29T03:39:19.424Z,102174.06
2023-01-29T03:42:08.083Z,102165.31
2023-01-29T03:45:11.969Z,102160.77
2023-01-29T03:48:00.236Z,102161.88
2023-01-29T03:50:53.608Z,102158.71
2023-01-29T03:53:34.398Z,102152.59
2023-01-29T03:56:07.680Z,102143.42
2023-01-29T03:58:45.560Z,102137.98
2023-01-29T04:01:33.491Z,102136.23
2023-01-29T04:04:15.263Z,102131.86
2023-01-29T04:06:51.493Z,102127.83
2023-01-29T04:09:34.130Z,102122.30
2023-01-29T04:12:20.614Z,102116.45
2023-01-29T04:14:53.477Z,102110.39
2023-01-29T04:17:33.032Z,102107.09
2023-01-29T04:20:03.958Z,102100.12
2023-01-29T04:22:35.694Z,102090.66
2023-01-29T04:25:17.198Z,102086.67
2023-01-29T04:28:16.260Z,102074.96
2023-01-29T04:30:52.130Z,102070.41
2023-01-29T04:33:49.535Z,102070.86
2023-01-29T04:36:41.122Z,102068.41
2023-01-29T04:39:33.844Z,102063.42
2023-01-29T04:42:23.587Z,102058.50
2023-01-29T04:45:08.958Z,102049.38
2023-01-29T04:47:59.206Z,102052.16
2023-01-29T04:50:39.381Z,102051.10
2023-01-29T04:53:46.287Z,102056.27
2023-01-29T04:56:41.918Z,102062.52
2023-01-29T04:59:27.390Z,102058.58
2023-01-29T05:02:00.190Z,102060.30
2023-01-29T05:04:34.291Z,102056.22
2023-01-29T05:07:07.877Z,102054.45
2023-01-29T05:09:39.229Z,102061.73
2023-01-29T05:12:16.068Z,102060.10
2023-01-29T05:14:48.284Z,102054.95
2023-01-29T05:17:20.584Z,102057.50
2023-01-29T05:19:50.350Z,102061.23
2023-01-29T05:22:22.695Z,102059.03
2023-01-29T05:24:52.205Z,102059.81
2023-01-29T05:27:53.161Z,102059.38
2023-01-29T05:30:22.939Z,102059.52
2023-01-29T05:32:52.718Z,102068.05
2023-01-29T05:35:22.483Z,102064.98
2023-01-29T05:37:52.326Z,102063.52
2023-01-29T05:40:22.368Z,102065.08
2023-01-29T05:42:52.249Z,102067.33
2023-01-29T05:45:22.219Z,102068.67
2023-01-29T05:47:59.371Z,102071.70
2023-01-29T05:50:29.174Z,102072.70
2023-01-29T05:53:01.569Z,102068.32
2023-01-29T05:55:31.346Z,102068.08
2023-01-29T05:58:01.285Z,102076.27
2023-01-29T06:00:31.033Z,102083.58
2023-01-29T06:03:01.411Z,102083.27
2023-01-29T06:05:31.288Z,102085.05
2023-01-29T06:08:01.029Z,102089.36
2023-01-29T06:10:30.939Z,102084.66
2023-01-29T06:13:00.892Z,102097.36
2023-01-29T06:15:30.783Z,102104.27
2023-01-29T06:18:00.576Z,102106.48
2023-01-29T06:20:30.386Z,102107.30
2023-01-29T06:23:00.962Z,102105.33
2023-01-29T06:25:30.737Z,102108.66
2023-01-29T06:28:00.821Z,102109.45
2023-01-29T06:30:31.929Z,102103.77
2023-01-29T06:33:02.695Z,102100.85
2023-01-29T06:35:32.467Z,102098.37
2023-01-29T06:38:02.296Z,102093.44
2023-01-29T06:40:32.067Z,102095.80
2023-01-29T06:43:01.971Z,102092.05
2023-01-29T06:45:31.768Z,102096.61
2023-01-29T06:48:01.782Z,102098.61
2023-01-29T06:50:31.619Z,102097.42
2023-01-29T06:53:01.567Z,102094.85
2023-01-29T06:55:31.447Z,102104.75
2023-01-29T06:58:10.222Z,102106.70
2023-01-29T07:00:40.515Z,102105.56
2023-01-29T07:03:11.230Z,102108.40
2023-01-29T07:05:38.987Z,102102.65
2023-01-29T07:08:07.284Z,102099.70
2023-01-29T07:10:36.701Z,102098.20
2023-01-29T07:13:04.039Z,102099.50
2023-01-29T07:15:32.495Z,102096.00
2023-01-29T07:18:12.174Z,102095.17
2023-01-29T07:20:43.659Z,102092.55
2023-01-29T07:23:14.363Z,102093.25
2023-01-29T07:25:42.000Z,102082.67
2023-01-29T07:28:10.536Z,102081.77
2023-01-29T07:30:38.612Z,102081.68
2023-01-29T07:33:09.699Z,102087.42
2023-01-29T07:35:41.976Z,102092.55
2023-01-29T07:38:11.868Z,102091.63
2023-01-29T07:40:41.636Z,102096.59
2023-01-29T07:43:11.923Z,102092.23
2023-01-29T07:45:41.743Z,102085.63
2023-01-29T07:48:13.383Z,102093.92
2023-01-29T07:50:44.059Z,102086.98
2023-01-29T07:53:15.480Z,102077.41
2023-01-29T07:55:45.473Z,102071.92
2023-01-29T07:58:15.266Z,102069.26
2023-01-29T08:00:45.706Z,102055.86
2023-01-29T08:03:20.097Z,102046.44
2023-01-29T08:05:50.102Z,102046.09
2023-01-29T08:08:19.798Z,102045.05
2023-01-29T08:10:49.575Z,102050.79
2023-01-29T08:13:19.344Z,102061.91
2023-01-29T08:15:49.062Z,102055.08
2023-01-29T08:18:18.788Z,102045.83
2023-01-29T08:20:48.532Z,102042.15
2023-01-29T08:23:17.034Z,102046.23
2023-01-29T08:25:45.382Z,102050.14
2023-01-29T08:28:13.875Z,102049.46
2023-01-29T08:30:44.123Z,102046.88
2023-01-29T08:33:13.615Z,102049.30
2023-01-29T08:35:42.712Z,102047.38
2023-01-29T08:38:10.898Z,102042.62
2023-01-29T08:40:38.916Z,102047.95
2023-01-29T08:43:10.754Z,102039.20
2023-01-29T08:45:42.888Z,102039.73
2023-01-29T08:48:12.717Z,102039.67
2023-01-29T08:50:42.505Z,102043.17
2023-01-29T08:53:12.563Z,102043.84
2023-01-29T08:55:42.273Z,102041.91
2023-01-29T08:58:12.532Z,102044.46
2023-01-29T09:00:42.376Z,102043.73
2023-01-29T09:03:12.650Z,102046.27
2023-01-29T09:05:42.539Z,102047.79
2023-01-29T09:08:12.808Z,102044.84
2023-01-29T09:10:42.708Z,102040.48
2023-01-29T09:13:12.536Z,102036.89
2023-01-29T09:15:42.343Z,102037.36
2023-01-29T09:18:12.237Z,102028.08
2023-01-29T09:20:42.010Z,102024.16
2023-01-29T09:23:12.056Z,102027.14
2023-01-29T09:25:44.132Z,102030.42
2023-01-29T09:28:13.875Z,102026.02
2023-01-29T09:30:44.754Z,102031.19
2023-01-29T09:33:14.646Z,102029.39
2023-01-29T09:35:46.892Z,102027.75
2023-01-29T09:38:16.660Z,102027.30
2023-01-29T09:41:17.771Z,102030.18
2023-01-29T09:44:12.133Z,102031.11
2023-01-29T09:46:48.425Z,102030.34
2023-01-29T09:49:25.769Z,102022.68
2023-01-29T09:52:04.173Z,102014.80
2023-01-29T09:54:37.870Z,102007.58
2023-01-29T09:57:17.445Z,102001.42
2023-01-29T09:59:47.287Z,101993.98
2023-01-29T10:02:39.155Z,101987.03
2023-01-29T10:05:55.063Z,101984.73
2023-01-29T10:08:30.594Z,101980.27
2023-01-29T10:11:02.807Z,101969.32
2023-01-29T10:13:52.203Z,101971.90
2023-01-29T10:17:01.320Z,101978.65
2023-01-29T10:19:49.492Z,101969.77
2023-01-29T10:22:49.682Z,101959.48
2023-01-29T10:25:22.562Z,101947.56
2023-01-29T10:27:57.852Z,101941.73
2023-01-29T10:30:38.994Z,101946.67
2023-01-29T10:34:01.456Z,101954.48
2023-01-29T10:36:42.877Z,101959.13
2023-01-29T10:39:24.505Z,101962.09
2023-01-29T10:42:26.602Z,101969.04
2023-01-29T10:45:08.379Z,101959.84
2023-01-29T10:48:21.653Z,101954.84
2023-01-29T10:51:43.022Z,101945.36
2023-01-29T10:54:38.426Z,101945.16
2023-01-29T10:57:35.055Z,101940.19
2023-01-29T11:00:23.972Z,101937.09
2023-01-29T11:02:53.936Z,101930.23
2023-01-29T11:05:36.382Z,101929.27
2023-01-29T11:08:16.378Z,101923.14
2023-01-29T11:11:17.394Z,101904.70
2023-01-29T11:14:07.127Z,101901.91
2023-01-29T11:16:47.473Z,101909.79
2023-01-29T11:19:16.361Z,101904.53
2023-01-29T11:22:01.346Z,101896.27
2023-01-29T11:24:31.167Z,101894.06
2023-01-29T11:27:00.986Z,101892.73
2023-01-29T11:29:44.811Z,101891.94
2023-01-29T11:32:33.900Z,101887.23
2023-01-29T11:35:15.892Z,101884.63
2023-01-29T11:37:46.039Z,101875.41
2023-01-29T11:40:20.571Z,101872.02
2023-01-29T11:42:53.667Z,101874.05
2023-01-29T11:45:23.299Z,101873.33
2023-01-29T11:47:56.771Z,101866.98
2023-01-29T11:50:31.881Z,101872.41
2023-01-29T11:53:03.443Z,101861.01
2023-01-29T11:55:49.954Z,101855.63
2023-01-29T11:58:31.834Z,101853.12
2023-01-29T12:01:03.836Z,101849.05
2023-01-29T12:03:49.935Z,101843.64
2023-01-29T12:06:28.455Z,101843.57
2023-01-29T12:09:02.876Z,101843.27
2023-01-29T12:11:35.562Z,101841.90
2023-01-29T12:14:27.037Z,101838.86
2023-01-29T12:17:24.018Z,101828.30
2023-01-29T12:20:09.284Z,101826.30
2023-01-29T12:23:31.713Z,101818.70
2023-01-29T12:26:36.443Z,101813.52
2023-01-29T12:29:33.583Z,101806.39
2023-01-29T12:32:26.129Z,101804.02
2023-01-29T12:35:12.129Z,101804.20
2023-01-29T12:38:20.593Z,101798.50
2023-01-29T12:41:04.299Z,101791.53
2023-01-29T12:43:45.074Z,101793.03
2023-01-29T12:46:43.661Z,101782.60
2023-01-29T12:49:22.472Z,101765.79
2023-01-29T12:52:24.420Z,101757.21
2023-01-29T12:55:06.584Z,101757.81
2023-01-29T12:58:05.261Z,101763.05
2023-01-29T13:00:47.932Z,101765.85
2023-01-29T13:03:48.830Z,101770.15
2023-01-29T13:06:28.903Z,101776.30
2023-01-29T13:09:06.304Z,101777.80
2023-01-29T13:12:18.223Z,101775.08
2023-01-29T13:14:57.614Z,101777.55
2023-01-29T13:17:42.711Z,101779.17
2023-01-29T13:20:19.825Z,101767.39
2023-01-29T13:22:54.101Z,101761.20
2023-01-29T13:25:24.071Z,101756.44
2023-01-29T13:27:54.241Z,101752.16
2023-01-29T13:30:36.817Z,101755.60
2023-01-29T13:33:10.400Z,101753.86
2023-01-29T13:35:45.705Z,101756.35
2023-01-29T13:38:32.263Z,101749.05
2023-01-29T13:41:08.817Z,101751.95
2023-01-29T13:43:48.473Z,101751.83
2023-01-29T13:46:21.495Z,101752.79
2023-01-29T13:48:55.315Z,101752.21
2023-01-29T13:51:36.188Z,101748.75
2023-01-29T13:54:21.389Z,101747.98
2023-01-29T13:56:55.150Z,101747.23
2023-01-29T13:59:55.302Z,101748.31
2023-01-29T14:02:30.248Z,101748.77
2023-01-29T14:05:31.711Z,101741.61
2023-01-29T14:08:02.446Z,101739.64
2023-01-29T14:10:37.798Z,101741.56
2023-01-29T14:13:18.425Z,101734.49
2023-01-29T14:15:57.408Z,101732.06
2023-01-29T14:18:29.665Z,101727.02
2023-01-29T14:21:29.879Z,101727.69
2023-01-29T14:24:12.144Z,101725.19
2023-01-29T14:26:47.586Z,101723.71
2023-01-29T14:29:34.798Z,101716.95
2023-01-29T14:32:12.219Z,101715.86
2023-01-29T14:34:49.678Z,101712.14
2023-01-29T14:37:29.157Z,101713.38
2023-01-29T14:40:20.191Z,101714.00
2023-01-29T14:43:08.049Z,101717.59
2023-01-29T14:45:44.617Z,101713.48
2023-01-29T14:48:48.666Z,101712.84
2023-01-29T14:51:21.354Z,101703.92
2023-01-29T14:54:14.306Z,101699.80
2023-01-29T14:57:02.442Z,101696.35
2023-01-29T15:00:00.821Z,101691.69
2023-01-29T15:02:40.331Z,101688.91
2023-01-29T15:05:37.876Z,101688.52
2023-01-29T15:08:30.146Z,101681.96
2023-01-29T15:11:26.949Z,101678.92
2023-01-29T15:14:39.600Z,101676.83
2023-01-29T15:17:09.268Z,101677.89
2023-01-29T15:19:48.055Z,101677.23
2023-01-29T15:22:23.344Z,101674.45
2023-01-29T15:25:10.471Z,101671.23
2023-01-29T15:27:45.492Z,101664.93
2023-01-29T15:30:29.286Z,101662.45
2023-01-29T15:33:00.630Z,101660.86
2023-01-29T15:35:42.337Z,101654.19
2023-01-29T15:38:21.102Z,101651.60
2023-01-29T15:41:01.340Z,101649.11
2023-01-29T15:43:36.735Z,101645.73
2023-01-29T15:46:25.433Z,101643.96
2023-01-29T15:49:00.485Z,101642.56
2023-01-29T15:51:31.720Z,101644.52
2023-01-29T15:54:05.849Z,101646.59
2023-01-29T15:56:51.286Z,101646.82
2023-01-29T15:59:27.262Z,101643.11
2023-01-29T16:01:57.244Z,101639.50
2023-01-29T16:04:31.308Z,101634.75
2023-01-29T16:07:01.998Z,101629.77
2023-01-29T16:09:32.111Z,101625.30
2023-01-29T16:12:02.745Z,101622.41
2023-01-29T16:14:31.942Z,101622.34
2023-01-29T16:17:36.530Z,101625.91
2023-01-29T16:20:27.192Z,101629.09
2023-01-29T16:22:57.624Z,101628.25
2023-01-29T16:25:30.803Z,101628.83
2023-01-29T16:28:05.967Z,101627.19
2023-01-29T16:30:37.504Z,101621.36
2023-01-29T16:33:14.667Z,101617.38
2023-01-29T16:35:52.266Z,101616.36
2023-01-29T16:38:33.060Z,101614.30
2023-01-29T16:41:16.282Z,101613.29
2023-01-29T16:43:59.405Z,101611.82
2023-01-29T16:46:33.693Z,101614.08
2023-01-29T16:49:43.424Z,101614.45
2023-01-29T16:52:29.620Z,101609.14
2023-01-29T16:55:21.825Z,101607.41
2023-01-29T16:57:55.604Z,101606.94
2023-01-29T17:00:28.448Z,101603.70
2023-01-29T17:03:05.987Z,101601.09
2023-01-29T17:05:38.498Z,101604.44
2023-01-29T17:08:24.727Z,101605.84
2023-01-29T17:10:55.061Z,101605.02
2023-01-29T17:13:45.916Z,101606.50
2023-01-29T17:16:27.234Z,101602.05
2023-01-29T17:18:58.210Z,101597.36
2023-01-29T17:21:30.473Z,101588.67
2023-01-29T17:24:00.271Z,101585.27
2023-01-29T17:26:31.577Z,101584.91
2023-01-29T17:29:01.389Z,101578.58
2023-01-29T17:31:31.198Z,101579.69
2023-01-29T17:34:01.063Z,101573.87
2023-01-29T17:36:30.836Z,101573.59
2023-01-29T17:39:01.286Z,101567.54
2023-01-29T17:41:32.590Z,101564.59
2023-01-29T17:44:02.825Z,101558.52
2023-01-29T17:46:32.569Z,101556.14
2023-01-29T17:49:04.427Z,101551.73
2023-01-29T17:51:34.365Z,101547.09
2023-01-29T17:54:04.249Z,101541.04
2023-01-29T17:56:34.040Z,101529.13
2023-01-29T17:59:23.730Z,101522.57
2023-01-29T18:01:53.132Z,101523.48
2023-01-29T18:04:23.572Z,101520.71
2023-01-29T18:06:55.623Z,101512.09
2023-01-29T18:09:25.684Z,101508.82
2023-01-29T18:11:55.755Z,101506.98
2023-01-29T18:14:25.513Z,101503.59
2023-01-29T18:16:57.258Z,101499.02
2023-01-29T18:19:27.624Z,101495.05
2023-01-29T18:21:57.500Z,101490.44
2023-01-29T18:24:28.020Z,101482.42
2023-01-29T18:26:57.545Z,101476.04
2023-01-29T18:29:30.094Z,101473.77
2023-01-29T18:31:59.350Z,101476.05
2023-01-29T18:34:29.179Z,101477.93
2023-01-29T18:37:00.183Z,101482.05
2023-01-29T18:39:29.329Z,101479.89
2023-01-29T18:41:59.177Z,101476.44
2023-01-29T18:44:29.768Z,101472.84
2023-01-29T18:46:59.499Z,101466.86
2023-01-29T18:49:29.228Z,101461.39
2023-01-29T18:51:58.982Z,101464.10
2023-01-29T18:54:29.447Z,101458.91
2023-01-29T18:57:13.855Z,101458.86
2023-01-29T18:59:45.189Z,101459.93
2023-01-29T19:02:19.172Z,101461.27
2023-01-29T19:04:49.333Z,101462.65
2023-01-29T19:07:19.359Z,101459.65
2023-01-29T19:09:50.469Z,101455.26
2023-01-29T19:12:22.340Z,101448.49
2023-01-29T19:14:52.131Z,101448.20
2023-01-29T19:17:22.597Z,101443.95
2023-01-29T19:19:52.479Z,101442.73
2023-01-29T19:22:22.284Z,101440.90
2023-01-29T19:24:52.071Z,101436.46
2023-01-29T19:27:20.636Z,101426.08
2023-01-29T19:29:48.942Z,101420.78
2023-01-29T19:32:17.347Z,101410.11
2023-01-29T19:34:45.777Z,101406.40
2023-01-29T19:37:15.118Z,101402.67
2023-01-29T19:39:42.300Z,101395.96
2023-01-29T19:42:14.682Z,101390.58
2023-01-29T19:44:45.418Z,101392.83
2023-01-29T19:47:15.427Z,101390.60
2023-01-29T19:49:45.405Z,101383.52
2023-01-29T19:52:41.464Z,101376.85
2023-01-29T19:55:21.294Z,101374.81
2023-01-29T19:57:57.007Z,101366.51
2023-01-29T20:00:25.759Z,101365.33
2023-01-29T20:02:53.944Z,101365.11
2023-01-29T20:05:23.960Z,101363.23
2023-01-29T20:07:50.766Z,101365.14
2023-01-29T20:10:19.672Z,101355.79
2023-01-29T20:12:47.858Z,101353.16
2023-01-29T20:15:16.094Z,101353.91
2023-01-29T20:17:45.957Z,101345.40
2023-01-29T20:20:13.045Z,101340.85
2023-01-29T20:22:41.234Z,101337.02
2023-01-29T20:25:13.496Z,101330.61
2023-01-29T20:27:43.550Z,101325.70
2023-01-29T20:30:14.088Z,101325.00
2023-01-29T20:32:43.859Z,101324.71
2023-01-29T20:35:13.748Z,101308.74
2023-01-29T20:37:43.559Z,101305.16
2023-01-29T20:40:15.648Z,101306.77
2023-01-29T20:42:45.146Z,101301.47
2023-01-29T20:45:13.621Z,101295.98
2023-01-29T20:47:43.266Z,101291.06
2023-01-29T20:50:13.044Z,101289.18
2023-01-29T20:52:42.767Z,101283.42
2023-01-29T20:55:12.607Z,101276.19
2023-01-29T20:57:42.565Z,101274.06
2023-01-29T21:00:15.732Z,101275.94
2023-01-29T21:02:45.996Z,101272.85
2023-01-29T21:05:15.804Z,101267.38
2023-01-29T21:07:45.739Z,101260.98
2023-01-29T21:10:16.647Z,101255.84
2023-01-29T21:12:46.512Z,101256.89
2023-01-29T21:15:16.765Z,101249.18
2023-01-29T21:17:48.233Z,101242.65
2023-01-29T21:20:18.565Z,101236.87
2023-01-29T21:22:49.130Z,101225.05
2023-01-29T21:25:20.807Z,101222.83
2023-01-29T21:27:51.226Z,101219.84
2023-01-29T21:30:22.347Z,101214.09
2023-01-29T21:32:52.188Z,101210.85
2023-01-29T21:35:22.088Z,101206.39
2023-01-29T21:37:51.945Z,101202.39
2023-01-29T21:40:21.754Z,101197.80
2023-01-29T21:43:10.944Z,101197.52
2023-01-29T21:45:42.631Z,101190.29
2023-01-29T21:48:12.342Z,101192.33
2023-01-29T21:50:42.095Z,101181.85
2023-01-29T21:53:11.979Z,101174.61
2023-01-29T21:55:40.674Z,101165.21
2023-01-29T21:58:09.232Z,101160.14
2023-01-29T22:00:38.442Z,101147.59
2023-01-29T22:03:06.750Z,101151.14
2023-01-29T22:05:34.732Z,101144.94
2023-01-29T22:08:04.887Z,101147.12
2023-01-29T22:10:36.464Z,101151.75
2023-01-29T22:13:06.349Z,101147.82
2023-01-29T22:15:36.083Z,101137.20
2023-01-29T22:18:05.985Z,101132.91
2023-01-29T22:20:36.632Z,101134.33
2023-01-29T22:23:06.517Z,101130.05
2023-01-29T22:25:36.284Z,101128.98
2023-01-29T22:28:07.328Z,101125.63
2023-01-29T22:30:37.057Z,101113.75
2023-01-29T22:33:07.162Z,101118.83
2023-01-29T22:35:37.291Z,101107.92
2023-01-29T22:38:07.412Z,101102.93
2023-01-29T22:40:37.121Z,101103.17
2023-01-29T22:43:07.454Z,101089.58
2023-01-29T22:45:39.789Z,101081.89
2023-01-29T22:48:09.569Z,101075.44
2023-01-29T22:50:40.812Z,101071.98
2023-01-29T22:53:10.124Z,101070.77
2023-01-29T22:55:39.960Z,101063.31
2023-01-29T22:58:09.945Z,101058.89
2023-01-29T23:00:39.724Z,101057.87
2023-01-29T23:03:09.462Z,101040.82
2023-01-29T23:05:39.269Z,101029.91
2023-01-29T23:08:09.244Z,101027.73
2023-01-29T23:10:39.045Z,101026.39
2023-01-29T23:13:08.817Z,101021.43
2023-01-29T23:15:39.405Z,101002.30
2023-01-29T23:18:08.718Z,101003.31
2023-01-29T23:20:38.759Z,100995.83
2023-01-29T23:23:07.035Z,100992.59
2023-01-29T23:25:55.587Z,100988.21
2023-01-29T23:28:24.084Z,100980.08
2023-01-29T23:30:53.877Z,100976.75
2023-01-29T23:33:23.982Z,100968.37
2023-01-29T23:35:53.787Z,100969.09
2023-01-29T23:38:23.544Z,100965.23
2023-01-29T23:40:53.625Z,100959.65
2023-01-29T23:43:30.520Z,100958.65
2023-01-29T23:45:59.633Z,100947.95
2023-01-29T23:48:29.601Z,100944.48
2023-01-29T23:50:59.413Z,100947.27
2023-01-29T23:53:29.243Z,100935.27
2023-01-29T23:56:04.908Z,100928.33
2023-01-29T23:58:34.830Z,100927.70
